Time;durP1;ratioP1;P1;durP2;ratioP2;P2;SDS_P1;SDS_P2;PMS_P1;PMS_P2;Temp;Humidity;BMP_temperature;BMP_pressure;BME280_temperature;BME280_humidity;BME280_pressure;Samples;Min_cycle;Max_cycle;Signal;HPM_P1;HPM_P2
2022/05/14 00:00:43;;;;;;;4.93;1.93;;;;;11.70;101629.00;;;;10007334;29;20212;-79
2022/05/14 00:05:46;;;;;;;4.90;1.77;;;;;11.70;101624.00;;;;9961879;29;20270;-79
2022/05/14 00:16:11;;;;;;;6.17;1.53;;;;;11.60;101623.00;;;;10036573;29;20623;-79
2022/05/14 00:21:13;;;;;;;4.30;1.87;;;;;11.50;101612.00;;;;9961260;29;20202;-79
2022/05/14 00:26:16;;;;;;;6.53;2.13;;;;;11.50;101618.00;;;;9991431;29;20560;-79
2022/05/14 00:31:18;;;;;;;6.00;2.40;;;;;11.50;101620.00;;;;9991031;29;20206;-79
2022/05/14 00:36:21;;;;;;;4.07;1.83;;;;;11.40;101616.00;;;;10006056;29;20250;-79
2022/05/14 00:41:24;;;;;;;5.33;1.57;;;;;11.30;101599.00;;;;9991129;29;20204;-79
2022/05/14 00:46:40;;;;;;;5.43;1.93;;;;;11.20;101612.00;;;;9990314;29;20213;-79
2022/05/14 00:51:46;;;;;;;7.50;1.70;;;;;11.10;101606.00;;;;9990615;29;20192;-79
2022/05/14 00:57:00;;;;;;;9.03;1.70;;;;;11.00;101613.00;;;;10021344;29;20232;-79
2022/05/14 01:02:04;;;;;;;10.57;2.77;;;;;10.90;101613.00;;;;9975069;29;20745;-79
2022/05/14 01:07:09;;;;;;;6.77;1.80;;;;;10.90;101609.00;;;;10036297;29;20197;-79
2022/05/14 01:12:18;;;;;;;6.87;2.90;;;;;10.90;101609.00;;;;9976017;29;20688;-79
2022/05/14 01:17:22;;;;;;;6.70;1.80;;;;;10.90;101617.00;;;;9966959;29;20278;-80
2022/05/14 01:22:39;;;;;;;11.57;2.27;;;;;10.80;101618.00;;;;10005375;29;20252;-79
2022/05/14 01:27:54;;;;;;;7.70;2.30;;;;;10.80;101619.00;;;;9972255;29;20194;-79
2022/05/14 01:33:05;;;;;;;4.70;1.60;;;;;10.70;101619.00;;;;9981280;29;20206;-79
2022/05/14 01:38:26;;;;;;;7.20;2.10;;;;;10.70;101624.00;;;;9975924;29;20292;-79
2022/05/14 01:43:29;;;;;;;6.40;2.10;;;;;10.70;101612.00;;;;9995896;29;20884;-79
2022/05/14 01:48:32;;;;;;;8.03;1.80;;;;;10.70;101613.00;;;;9981631;29;20210;-79
2022/05/14 01:53:35;;;;;;;6.87;2.03;;;;;10.70;101616.00;;;;9995921;29;20194;-79
2022/05/14 01:58:39;;;;;;;10.07;2.40;;;;;10.70;101615.00;;;;9980926;29;20202;-79
2022/05/14 02:03:57;;;;;;;9.37;2.40;;;;;10.60;101622.00;;;;9980638;29;20214;-80
2022/05/14 02:09:01;;;;;;;7.70;1.97;;;;;10.60;101608.00;;;;9995930;29;20293;-79
2022/05/14 02:14:05;;;;;;;8.13;2.17;;;;;10.50;101606.00;;;;10010659;29;20251;-79
2022/05/14 02:19:07;;;;;;;12.10;2.63;;;;;10.50;101609.00;;;;9963372;29;20245;-79
2022/05/14 02:24:09;;;;;;;3.97;1.87;;;;;10.50;101617.00;;;;9957454;29;20231;-79
2022/05/14 02:29:11;;;;;;;7.37;2.17;;;;;10.50;101619.00;;;;9973134;29;20202;-79
2022/05/14 02:34:13;;;;;;;10.33;2.20;;;;;10.50;101622.00;;;;10003063;29;20198;-79
2022/05/14 02:39:15;;;;;;;10.93;2.70;;;;;10.40;101631.00;;;;9957795;29;20198;-79
2022/05/14 02:44:17;;;;;;;6.23;2.20;;;;;10.40;101621.00;;;;9972685;29;20267;-79
2022/05/14 02:49:19;;;;;;;4.80;2.33;;;;;10.30;101627.00;;;;9956595;29;20631;-79
2022/05/14 02:54:21;;;;;;;5.10;2.10;;;;;10.30;101625.00;;;;9955222;29;20198;-80
2022/05/14 02:59:23;;;;;;;7.83;2.40;;;;;10.30;101629.00;;;;9987893;29;20206;-79
2022/05/14 03:04:28;;;;;;;11.40;2.80;;;;;10.30;101629.00;;;;9979187;29;20221;-79
2022/05/14 03:09:34;;;;;;;9.07;2.27;;;;;10.30;101632.00;;;;9978908;29;20198;-79
2022/05/14 03:14:36;;;;;;;7.50;2.40;;;;;10.30;101631.00;;;;9952549;29;20263;-79
2022/05/14 03:19:39;;;;;;;10.93;2.63;;;;;10.30;101630.00;;;;9940601;29;20242;-79
2022/05/14 03:24:42;;;;;;;10.80;2.53;;;;;10.20;101634.00;;;;9955297;29;20313;-79
2022/05/14 03:29:44;;;;;;;12.10;3.53;;;;;10.20;101631.00;;;;9974915;29;20216;-79
2022/05/14 03:34:47;;;;;;;6.87;2.60;;;;;10.10;101623.00;;;;9977936;29;20198;-80
2022/05/14 03:39:49;;;;;;;7.17;2.63;;;;;9.90;101626.00;;;;9963103;29;20221;-79
2022/05/14 03:44:51;;;;;;;6.50;2.83;;;;;9.80;101624.00;;;;9978735;29;20304;-79
2022/05/14 03:49:53;;;;;;;8.53;2.43;;;;;9.80;101619.00;;;;9978498;29;20592;-79
2022/05/14 03:54:55;;;;;;;6.57;2.53;;;;;9.80;101623.00;;;;9977744;29;20630;-79
2022/05/14 03:59:58;;;;;;;8.80;2.73;;;;;9.80;101614.00;;;;9974920;29;20205;-79
2022/05/14 04:05:00;;;;;;;12.77;2.73;;;;;9.80;101621.00;;;;9991054;29;20346;-79
2022/05/14 04:10:04;;;;;;;10.03;2.93;;;;;9.90;101626.00;;;;10007390;29;20301;-79
2022/05/14 04:15:07;;;;;;;6.07;2.53;;;;;10.00;101620.00;;;;10021610;29;20205;-80
2022/05/14 04:20:10;;;;;;;6.13;2.60;;;;;10.00;101627.00;;;;9961862;29;20229;-79
2022/05/14 04:25:13;;;;;;;6.63;2.80;;;;;10.10;101613.00;;;;9976043;29;20218;-79
2022/05/14 04:30:17;;;;;;;13.23;2.90;;;;;10.10;101618.00;;;;10007505;29;20684;-79
2022/05/14 04:35:21;;;;;;;7.57;3.30;;;;;10.20;101630.00;;;;9991402;29;20221;-79
2022/05/14 04:40:23;;;;;;;11.03;3.43;;;;;10.30;101620.00;;;;10006777;29;20240;-79
2022/05/14 04:45:25;;;;;;;7.93;2.80;;;;;10.50;101621.00;;;;9990893;29;20253;-79
2022/05/14 04:50:27;;;;;;;9.50;3.23;;;;;10.70;101633.00;;;;9991112;29;20615;-79
2022/05/14 04:55:29;;;;;;;9.43;3.97;;;;;11.00;101638.00;;;;9990854;29;20210;-78
2022/05/14 05:00:31;;;;;;;14.23;3.43;;;;;11.30;101637.00;;;;9991048;29;20217;-78
2022/05/14 05:05:33;;;;;;;15.90;4.10;;;;;11.70;101652.00;;;;9975631;29;20296;-78
2022/05/14 05:10:36;;;;;;;9.70;3.20;;;;;11.90;101649.00;;;;9975369;29;20205;-78
2022/05/14 05:15:39;;;;;;;8.07;3.77;;;;;12.20;101652.00;;;;9978316;29;20772;-78
2022/05/14 05:20:44;;;;;;;10.13;3.33;;;;;12.50;101654.00;;;;9960115;29;20194;-78
2022/05/14 05:25:47;;;;;;;14.70;3.30;;;;;12.90;101657.00;;;;9945253;29;20215;-78
2022/05/14 05:30:49;;;;;;;11.90;3.60;;;;;13.40;101658.00;;;;9959643;29;20198;-78
2022/05/14 05:35:52;;;;;;;8.87;3.60;;;;;13.80;101668.00;;;;9958340;29;20259;-78
2022/05/14 05:40:54;;;;;;;10.50;3.90;;;;;14.30;101663.00;;;;9944517;29;20274;-78
2022/05/14 05:45:56;;;;;;;13.20;3.80;;;;;14.90;101660.00;;;;9958980;29;20621;-78
2022/05/14 05:50:58;;;;;;;14.10;4.47;;;;;15.50;101665.00;;;;9968205;29;20248;-78
2022/05/14 06:01:21;;;;;;;9.53;4.37;;;;;16.40;101669.00;;;;10011115;29;20562;-78
2022/05/14 06:06:23;;;;;;;8.80;3.63;;;;;16.70;101669.00;;;;10025872;29;20221;-78
2022/05/14 06:11:25;;;;;;;13.65;4.20;;;;;17.00;101672.00;;;;9981830;29;20241;-79
2022/05/14 06:16:27;;;;;;;13.97;4.27;;;;;17.50;101681.00;;;;9980657;29;20693;-79
2022/05/14 06:21:29;;;;;;;6.85;3.70;;;;;17.80;101685.00;;;;9956165;29;20259;-79
2022/05/14 06:26:31;;;;;;;11.85;3.75;;;;;18.00;101689.00;;;;9971259;29;20263;-79
2022/05/14 06:31:33;;;;;;;11.85;4.75;;;;;18.50;101686.00;;;;10006954;29;20242;-79
2022/05/14 06:36:37;;;;;;;12.15;4.53;;;;;18.90;101685.00;;;;10005547;29;20206;-79
2022/05/14 06:41:39;;;;;;;15.25;4.68;;;;;19.20;101695.00;;;;10008342;29;20201;-79
2022/05/14 06:46:41;;;;;;;11.88;4.15;;;;;19.50;101693.00;;;;9993758;29;20228;-79
2022/05/14 06:51:43;;;;;;;14.45;5.18;;;;;19.90;101700.00;;;;9993483;29;20245;-79
2022/05/14 06:56:46;;;;;;;14.90;5.07;;;;;19.90;101700.00;;;;9993516;29;20190;-79
2022/05/14 07:01:48;;;;;;;17.88;5.72;;;;;20.10;101708.00;;;;9978577;29;20213;-79
2022/05/14 07:06:50;;;;;;;16.88;5.28;;;;;20.60;101695.00;;;;10008064;29;20626;-79
2022/05/14 07:11:54;;;;;;;12.90;5.93;;;;;20.90;101709.00;;;;9996807;29;20910;-79
2022/05/14 07:16:58;;;;;;;16.17;5.20;;;;;21.10;101704.00;;;;9963020;29;20237;-78
2022/05/14 07:22:00;;;;;;;16.10;5.05;;;;;21.40;101701.00;;;;9962453;29;20229;-78
2022/05/14 07:27:03;;;;;;;17.73;5.32;;;;;21.60;101711.00;;;;9976641;29;20224;-79
2022/05/14 07:32:10;;;;;;;10.52;4.45;;;;;21.70;101712.00;;;;9991529;29;20254;-79
2022/05/14 07:37:27;;;;;;;17.20;5.32;;;;;22.20;101712.00;;;;9983862;29;20255;-79
2022/05/14 07:42:39;;;;;;;11.48;4.97;;;;;22.70;101709.00;;;;9973521;29;20208;-78
2022/05/14 07:47:41;;;;;;;18.60;5.20;;;;;23.00;101709.00;;;;9983505;29;20214;-78
2022/05/14 07:52:43;;;;;;;12.35;4.68;;;;;23.30;101709.00;;;;9976275;29;20210;-79
2022/05/14 07:57:45;;;;;;;13.73;5.78;;;;;23.70;101704.00;;;;9960276;29;20204;-78
2022/05/14 08:02:47;;;;;;;15.43;5.18;;;;;23.90;101717.00;;;;9975295;29;20201;-79
2022/05/14 08:07:50;;;;;;;11.07;4.55;;;;;23.80;101705.00;;;;9990381;29;20661;-78
2022/05/14 08:12:55;;;;;;;16.52;5.22;;;;;23.40;101702.00;;;;9979011;29;20208;-78
2022/05/14 08:17:57;;;;;;;13.35;5.10;;;;;22.90;101704.00;;;;9972795;29;20233;-78
2022/05/14 08:28:19;;;;;;;12.25;4.20;;;;;24.30;101704.00;;;;9973899;29;20209;-78
2022/05/14 08:33:21;;;;;;;17.60;5.55;;;;;25.00;101704.00;;;;10020427;29;20198;-78
2022/05/14 08:38:23;;;;;;;13.95;4.80;;;;;25.60;101701.00;;;;9988728;29;20209;-79
2022/05/14 08:43:39;;;;;;;13.90;3.97;;;;;26.10;101710.00;;;;9965474;29;20218;-80
2022/05/14 08:48:41;;;;;;;14.05;4.65;;;;;26.40;101700.00;;;;9983703;29;20557;-80
2022/05/14 08:53:47;;;;;;;12.45;4.30;;;;;26.50;101700.00;;;;9983535;29;20250;-80
2022/05/14 08:59:15;;;;;;;13.30;4.90;;;;;27.00;101690.00;;;;9967231;29;20261;-80
2022/05/14 09:04:18;;;;;;;12.60;4.25;;;;;27.30;101703.00;;;;10002970;29;20214;-79
2022/05/14 09:09:20;;;;;;;8.50;3.40;;;;;27.60;101702.00;;;;10005556;29;20229;-78
2022/05/14 09:14:26;;;;;;;13.15;4.20;;;;;27.90;101702.00;;;;9984332;29;20195;-76
2022/05/14 09:19:35;;;;;;;13.25;4.25;;;;;27.80;101697.00;;;;9967695;29;20306;-76
2022/05/14 09:24:43;;;;;;;9.07;4.00;;;;;27.30;101695.00;;;;9981247;29;20631;-76
2022/05/14 09:29:47;;;;;;;10.55;3.50;;;;;27.70;101708.00;;;;9970940;29;20205;-78
2022/05/14 09:34:49;;;;;;;12.90;3.72;;;;;28.00;101703.00;;;;9954205;29;20289;-80
2022/05/14 09:40:25;;;;;;;11.55;2.95;;;;;28.30;101706.00;;;;9949576;29;20206;-79
2022/05/14 09:45:33;;;;;;;11.55;3.28;;;;;28.20;101698.00;;;;9968212;29;20289;-79
2022/05/14 09:50:36;;;;;;;12.63;3.92;;;;;28.80;101692.00;;;;9951350;29;20566;-79
2022/05/14 09:56:03;;;;;;;14.45;3.42;;;;;28.80;101698.00;;;;9957163;29;20654;-79
2022/05/14 10:01:17;;;;;;;14.15;4.10;;;;;29.00;101697.00;;;;9932540;29;20263;-79
2022/05/14 10:06:49;;;;;;;12.73;3.67;;;;;29.30;101694.00;;;;9969793;29;20233;-77
2022/05/14 10:12:02;;;;;;;13.70;4.30;;;;;29.60;101696.00;;;;9941799;29;20203;-80
2022/05/14 10:17:18;;;;;;;11.70;3.47;;;;;29.40;101697.00;;;;9968059;29;20281;-79
2022/05/14 10:28:14;;;;;;;10.07;4.45;;;;;29.70;101688.00;;;;9991444;29;20226;-77
2022/05/14 10:33:22;;;;;;;11.13;3.70;;;;;30.10;101682.00;;;;9986155;29;20202;-77
2022/05/14 10:38:45;;;;;;;9.18;3.60;;;;;30.10;101683.00;;;;10023914;29;20201;-77
2022/05/14 10:43:54;;;;;;;11.57;3.88;;;;;29.20;101683.00;;;;10024161;29;20244;-79
2022/05/14 10:48:59;;;;;;;14.35;3.88;;;;;28.20;101678.00;;;;9978133;29;20202;-78
2022/05/14 10:54:03;;;;;;;8.85;3.40;;;;;28.50;101674.00;;;;9989471;29;20591;-78
2022/05/14 10:59:12;;;;;;;9.57;3.42;;;;;28.40;101672.00;;;;9971728;29;20207;-80
2022/05/14 11:04:25;;;;;;;12.98;4.03;;;;;28.00;101662.00;;;;10008269;29;20221;-80
2022/05/14 11:09:30;;;;;;;9.80;3.67;;;;;28.60;101675.00;;;;9994968;29;20253;-81
2022/05/14 11:14:40;;;;;;;10.07;3.33;;;;;29.50;101677.00;;;;10035784;29;20409;-79
2022/05/14 11:19:42;;;;;;;13.07;3.80;;;;;30.50;101664.00;;;;9973195;29;20664;-80
2022/05/14 11:24:44;;;;;;;14.07;4.22;;;;;31.30;101674.00;;;;9971729;29;20213;-80
2022/05/14 11:29:54;;;;;;;12.13;4.00;;;;;31.20;101671.00;;;;9979532;29;20299;-78
2022/05/14 11:35:00;;;;;;;12.43;3.95;;;;;31.10;101667.00;;;;9979711;29;20228;-80
2022/05/14 11:40:21;;;;;;;11.63;3.30;;;;;30.80;101678.00;;;;10001721;29;20273;-79
2022/05/14 11:45:29;;;;;;;10.90;3.38;;;;;29.80;101664.00;;;;9991406;29;20238;-79
2022/05/14 11:50:39;;;;;;;17.67;3.63;;;;;30.30;101658.00;;;;9997767;29;20569;-78
2022/05/14 11:56:11;;;;;;;10.07;2.90;;;;;29.40;101670.00;;;;10018793;29;20199;-81
2022/05/14 12:01:19;;;;;;;9.23;3.38;;;;;29.50;101661.00;;;;10008399;29;20218;-80
2022/05/14 12:06:33;;;;;;;8.77;2.88;;;;;29.60;101656.00;;;;9983271;29;20222;-79
2022/05/14 12:11:40;;;;;;;6.18;2.78;;;;;29.50;101651.00;;;;9989829;29;20210;-79
2022/05/14 12:16:50;;;;;;;8.15;2.80;;;;;29.10;101658.00;;;;9990129;29;20256;-81
2022/05/14 12:21:56;;;;;;;10.77;3.05;;;;;29.40;101655.00;;;;9976748;29;20570;-80
2022/05/14 12:26:59;;;;;;;7.63;2.90;;;;;29.70;101636.00;;;;9990658;29;20270;-79
2022/05/14 12:37:41;;;;;;;9.50;2.80;;;;;30.30;101635.00;;;;10020742;29;20193;-80
2022/05/14 12:42:44;;;;;;;6.03;2.78;;;;;30.50;101625.00;;;;9989907;29;20205;-81
2022/05/14 12:47:47;;;;;;;13.27;3.80;;;;;29.60;101633.00;;;;9961242;29;20260;-81
2022/05/14 12:52:58;;;;;;;8.88;2.88;;;;;29.50;101634.00;;;;9990183;29;20194;-80
2022/05/14 12:58:04;;;;;;;13.30;3.45;;;;;28.40;101628.00;;;;9973209;29;20246;-80
2022/05/14 13:03:34;;;;;;;10.70;3.35;;;;;28.40;101616.00;;;;9974435;29;20570;-78
2022/05/14 13:08:42;;;;;;;13.68;3.42;;;;;29.00;101612.00;;;;10002960;29;20207;-79
2022/05/14 13:13:48;;;;;;;10.25;3.00;;;;;29.90;101607.00;;;;9997162;29;20214;-80
2022/05/14 13:18:59;;;;;;;11.20;3.38;;;;;31.10;101607.00;;;;9949924;29;20692;-80
2022/05/14 13:24:19;;;;;;;8.35;2.97;;;;;32.20;101604.00;;;;10021231;29;20223;-80
2022/05/14 13:29:26;;;;;;;5.75;2.50;;;;;33.50;101600.00;;;;9959687;29;20202;-80
2022/05/14 13:39:55;;;;;;;9.55;2.83;;;;;32.20;101586.00;;;;9959132;29;20230;-79
2022/05/14 13:45:08;;;;;;;10.05;2.65;;;;;34.30;101587.00;;;;9984502;29;20596;-79
2022/05/14 13:50:10;;;;;;;8.57;2.88;;;;;35.70;101577.00;;;;9971169;29;20596;-79
2022/05/14 13:55:16;;;;;;;11.00;2.80;;;;;36.40;101576.00;;;;10003072;29;20195;-79
2022/05/14 14:00:22;;;;;;;10.35;2.65;;;;;36.80;101570.00;;;;9995660;29;20209;-79
2022/05/14 14:05:24;;;;;;;9.55;2.50;;;;;36.80;101573.00;;;;10009589;29;20222;-79
2022/05/14 14:10:33;;;;;;;8.65;2.78;;;;;36.70;101581.00;;;;9994490;29;20205;-79
2022/05/14 14:15:36;;;;;;;8.52;2.85;;;;;36.80;101572.00;;;;10009412;29;20558;-79
2022/05/14 14:20:44;;;;;;;6.35;2.67;;;;;36.30;101566.00;;;;10010023;29;20296;-79
2022/05/14 14:25:46;;;;;;;9.93;2.47;;;;;35.90;101570.00;;;;9994378;29;20278;-79
2022/05/14 14:30:49;;;;;;;5.13;2.30;;;;;34.10;101560.00;;;;10039645;29;20615;-79
2022/05/14 14:35:51;;;;;;;6.80;2.65;;;;;36.60;101554.00;;;;9994400;29;20276;-79
2022/05/14 14:40:53;;;;;;;5.80;2.58;;;;;37.30;101550.00;;;;9993993;29;20232;-79
2022/05/14 14:45:55;;;;;;;7.55;2.63;;;;;36.70;101543.00;;;;10008722;29;20696;-80
2022/05/14 14:50:59;;;;;;;7.40;2.72;;;;;36.40;101550.00;;;;10023976;29;20194;-79
2022/05/14 14:56:01;;;;;;;7.45;3.00;;;;;37.40;101538.00;;;;10007981;29;20254;-79
2022/05/14 15:01:03;;;;;;;8.95;2.47;;;;;37.70;101534.00;;;;10008098;29;20202;-80
2022/05/14 15:06:06;;;;;;;8.85;3.35;;;;;37.50;101533.00;;;;10004808;29;20691;-79
2022/05/14 15:11:11;;;;;;;7.30;2.80;;;;;37.40;101532.00;;;;10009205;29;20734;-80
2022/05/14 15:16:13;;;;;;;6.95;2.53;;;;;34.80;101514.00;;;;9978776;29;20228;-80
2022/05/14 15:21:15;;;;;;;6.88;2.28;;;;;36.40;101518.00;;;;10045497;29;20657;-79
2022/05/14 15:26:19;;;;;;;9.05;2.30;;;;;32.70;101523.00;;;;10016206;29;20316;-79
2022/05/14 15:31:51;;;;;;;5.45;2.40;;;;;36.20;101516.00;;;;9999247;29;20258;-80
2022/05/14 15:36:54;;;;;;;6.35;2.33;;;;;37.20;101507.00;;;;9989923;29;20288;-80
2022/05/14 15:42:04;;;;;;;9.10;2.70;;;;;34.40;101517.00;;;;9971504;29;20210;-80
2022/05/14 15:47:06;;;;;;;10.00;2.47;;;;;33.30;101496.00;;;;9970212;29;20213;-78
2022/05/14 15:52:11;;;;;;;12.60;2.72;;;;;32.50;101514.00;;;;10011621;29;20212;-79
2022/05/14 15:57:12;;;;;;;9.80;2.72;;;;;28.80;101512.00;;;;9983403;29;20654;-79
2022/05/14 16:02:14;;;;;;;8.73;2.80;;;;;27.30;101511.00;;;;10001574;29;20254;-80
2022/05/14 16:07:17;;;;;;;8.63;2.63;;;;;26.30;101515.00;;;;9993331;29;20673;-79
2022/05/14 16:17:39;;;;;;;8.18;2.22;;;;;25.80;101494.00;;;;10017981;29;20229;-79
2022/05/14 16:22:43;;;;;;;8.48;2.55;;;;;25.10;101501.00;;;;9967366;29;20226;-79
2022/05/14 16:27:46;;;;;;;8.85;3.03;;;;;24.70;101495.00;;;;10024111;29;20282;-79
2022/05/14 16:32:48;;;;;;;5.72;1.83;;;;;24.50;101494.00;;;;9993463;29;20208;-79
2022/05/14 16:37:50;;;;;;;9.15;2.47;;;;;24.30;101488.00;;;;9988814;29;20198;-79
2022/05/14 16:42:56;;;;;;;6.72;1.98;;;;;24.20;101494.00;;;;10020587;29;20248;-79
2022/05/14 16:48:00;;;;;;;7.88;2.25;;;;;24.10;101493.00;;;;9994276;29;20214;-79
2022/05/14 16:53:03;;;;;;;8.90;2.40;;;;;23.90;101487.00;;;;9968414;29;20689;-79
2022/05/14 16:58:08;;;;;;;13.07;5.05;;;;;23.90;101485.00;;;;9985602;29;20245;-80
2022/05/14 17:03:12;;;;;;;18.10;10.68;;;;;23.80;101487.00;;;;9952668;29;20221;-80
2022/05/14 17:08:14;;;;;;;8.10;3.28;;;;;23.70;101492.00;;;;9972667;29;20226;-81
2022/05/14 17:13:16;;;;;;;3.42;1.73;;;;;23.70;101487.00;;;;9980156;29;20206;-81
2022/05/14 17:18:20;;;;;;;8.13;2.20;;;;;23.50;101489.00;;;;9965768;29;20242;-81
2022/05/14 17:23:21;;;;;;;4.97;2.05;;;;;23.40;101489.00;;;;9995169;29;20209;-81
2022/05/14 17:28:24;;;;;;;8.15;2.63;;;;;23.30;101492.00;;;;9995821;29;20741;-80
2022/05/14 17:33:26;;;;;;;4.95;2.25;;;;;23.20;101484.00;;;;10030798;29;20201;-81
2022/05/14 17:44:16;;;;;;;12.10;6.82;;;;;23.00;101483.00;;;;9986767;29;20209;-80
2022/05/14 17:49:18;;;;;;;16.15;6.70;;;;;23.00;101482.00;;;;10012181;29;20252;-80
2022/05/14 17:54:20;;;;;;;7.85;2.42;;;;;22.80;101473.00;;;;9967834;29;20205;-80
2022/05/14 17:59:24;;;;;;;5.68;2.08;;;;;22.70;101478.00;;;;9974521;29;20213;-80
2022/05/14 18:04:26;;;;;;;11.15;5.38;;;;;22.60;101470.00;;;;9958799;29;20205;-81
2022/05/14 18:09:30;;;;;;;11.32;3.92;;;;;22.50;101473.00;;;;9960649;29;20198;-80
2022/05/14 18:14:33;;;;;;;7.47;2.92;;;;;22.40;101478.00;;;;9961369;29;20206;-81
2022/05/14 18:19:39;;;;;;;24.48;14.65;;;;;22.20;101472.00;;;;10009859;29;20273;-81
2022/05/14 18:24:41;;;;;;;8.35;3.70;;;;;22.10;101470.00;;;;10019572;29;20754;-80
2022/05/14 18:29:54;;;;;;;8.82;4.13;;;;;21.90;101460.00;;;;10016485;29;20206;-81
2022/05/14 18:34:57;;;;;;;13.75;4.40;;;;;21.70;101463.00;;;;9997099;29;20707;-80
2022/05/14 18:40:04;;;;;;;20.55;7.57;;;;;21.50;101458.00;;;;9968341;29;20313;-80
2022/05/14 18:45:09;;;;;;;14.45;7.43;;;;;21.30;101469.00;;;;9991401;29;20625;-80
2022/05/14 18:50:11;;;;;;;21.88;9.00;;;;;21.00;101465.00;;;;10010734;29;20201;-80
2022/05/14 18:55:13;;;;;;;26.63;12.95;;;;;20.80;101465.00;;;;9974828;29;20527;-80
2022/05/14 19:00:18;;;;;;;11.25;5.75;;;;;20.50;101467.00;;;;9986082;29;20206;-81
2022/05/14 19:10:49;;;;;;;14.00;4.35;;;;;20.00;101472.00;;;;9980985;29;20224;-81
2022/05/14 19:15:52;;;;;;;16.58;7.22;;;;;19.70;101474.00;;;;9965534;29;20661;-81
2022/05/14 19:20:54;;;;;;;18.08;5.25;;;;;19.50;101469.00;;;;10009395;29;20629;-80
2022/05/14 19:25:56;;;;;;;11.23;4.10;;;;;19.20;101481.00;;;;9957562;29;20669;-81
2022/05/14 19:31:03;;;;;;;15.63;5.82;;;;;19.00;101480.00;;;;9984877;29;20210;-81
2022/05/14 19:36:06;;;;;;;13.38;4.70;;;;;18.70;101484.00;;;;10027306;29;20552;-80
2022/05/14 19:41:15;;;;;;;13.30;4.53;;;;;18.50;101488.00;;;;10011409;29;20653;-81
2022/05/14 19:46:19;;;;;;;19.98;11.05;;;;;18.30;101493.00;;;;9994529;29;20236;-80
2022/05/14 19:51:22;;;;;;;11.68;4.97;;;;;18.20;101493.00;;;;9994281;29;20661;-80
2022/05/14 19:56:24;;;;;;;13.82;5.97;;;;;18.10;101503.00;;;;9994535;29;20204;-81
2022/05/14 20:01:27;;;;;;;13.77;4.93;;;;;18.00;101514.00;;;;9975198;29;20201;-80
2022/05/14 20:06:30;;;;;;;9.27;4.50;;;;;17.90;101516.00;;;;9978307;29;20248;-80
2022/05/14 20:11:35;;;;;;;14.13;6.15;;;;;17.80;101513.00;;;;9967865;29;20258;-80
2022/05/14 20:21:57;;;;;;;16.10;5.07;;;;;17.50;101528.00;;;;9993501;29;20197;-81
2022/05/14 20:27:04;;;;;;;19.10;8.25;;;;;17.40;101522.00;;;;9942127;29;20220;-81
2022/05/14 20:32:10;;;;;;;15.48;4.78;;;;;17.30;101530.00;;;;9998852;29;20308;-81
2022/05/14 20:37:12;;;;;;;7.45;4.00;;;;;17.10;101532.00;;;;10005018;29;20238;-81
2022/05/14 20:42:13;;;;;;;13.98;4.95;;;;;17.00;101537.00;;;;9977572;29;20201;-82
2022/05/14 20:47:15;;;;;;;21.17;5.53;;;;;16.90;101537.00;;;;9974967;29;20630;-82
2022/05/14 20:52:18;;;;;;;12.60;5.00;;;;;16.80;101533.00;;;;9979527;29;20201;-83
2022/05/14 20:57:22;;;;;;;14.20;5.03;;;;;16.60;101537.00;;;;9975518;29;20280;-82
2022/05/14 21:02:24;;;;;;;11.33;4.63;;;;;16.50;101539.00;;;;9941880;29;20212;-82
2022/05/14 21:07:26;;;;;;;13.70;4.70;;;;;16.40;101542.00;;;;10013311;29;20206;-83
2022/05/14 21:12:29;;;;;;;13.40;5.23;;;;;16.30;101541.00;;;;9976814;29;20203;-82
2022/05/14 21:17:31;;;;;;;12.97;5.30;;;;;16.20;101533.00;;;;9987212;29;20230;-82
2022/05/14 21:22:33;;;;;;;11.37;5.20;;;;;16.10;101536.00;;;;9983513;29;20206;-83
2022/05/14 21:27:35;;;;;;;14.80;5.77;;;;;16.00;101532.00;;;;9955968;29;20650;-82
2022/05/14 21:32:38;;;;;;;10.90;5.37;;;;;15.90;101527.00;;;;9965573;29;20185;-83
2022/05/14 21:37:40;;;;;;;17.10;6.23;;;;;15.70;101524.00;;;;9985292;29;20202;-82
2022/05/14 21:42:54;;;;;;;9.23;5.23;;;;;15.60;101524.00;;;;9957427;29;20206;-82
2022/05/14 21:47:57;;;;;;;18.67;7.23;;;;;15.60;101532.00;;;;9989203;29;20251;-82
2022/05/14 21:53:03;;;;;;;17.43;6.63;;;;;15.50;101541.00;;;;9955455;29;20200;-82
2022/05/14 21:58:06;;;;;;;21.40;6.53;;;;;15.40;101537.00;;;;9992049;29;20193;-82
2022/05/14 22:03:13;;;;;;;19.63;6.33;;;;;15.30;101535.00;;;;10012747;29;20201;-82
2022/05/14 22:08:17;;;;;;;20.90;7.80;;;;;15.20;101534.00;;;;10009099;29;20216;-81
2022/05/14 22:13:24;;;;;;;24.53;7.13;;;;;15.10;101535.00;;;;9995665;29;20202;-81
2022/05/14 22:18:26;;;;;;;15.80;7.73;;;;;15.00;101530.00;;;;9970227;29;20697;-81
2022/05/14 22:23:28;;;;;;;19.53;8.47;;;;;14.90;101533.00;;;;9971484;29;20688;-81
2022/05/14 22:28:30;;;;;;;22.27;8.20;;;;;14.80;101534.00;;;;9959321;29;20642;-81
2022/05/14 22:33:34;;;;;;;15.53;8.07;;;;;14.70;101526.00;;;;9962052;29;20210;-81
2022/05/14 22:38:37;;;;;;;21.17;7.93;;;;;14.60;101518.00;;;;9953455;29;20198;-81
2022/05/14 22:43:42;;;;;;;18.43;7.47;;;;;14.50;101503.00;;;;10001711;29;20573;-81
2022/05/14 22:48:44;;;;;;;15.50;8.00;;;;;14.30;101505.00;;;;9999892;29;20301;-81
2022/05/14 22:53:50;;;;;;;17.07;8.03;;;;;14.20;101505.00;;;;9967957;29;20234;-80
2022/05/14 22:58:53;;;;;;;14.50;7.97;;;;;14.10;101497.00;;;;9978242;29;20265;-80
2022/05/14 23:03:54;;;;;;;18.63;8.43;;;;;14.00;101506.00;;;;9998601;29;20611;-80
2022/05/14 23:08:56;;;;;;;15.40;8.37;;;;;13.90;101504.00;;;;9972963;29;20774;-80
2022/05/14 23:13:59;;;;;;;24.27;8.23;;;;;13.70;101495.00;;;;9986947;29;20213;-80
2022/05/14 23:19:01;;;;;;;15.70;8.63;;;;;13.60;101489.00;;;;9982923;29;20290;-81
2022/05/14 23:24:03;;;;;;;16.17;7.97;;;;;13.50;101487.00;;;;10025180;29;20206;-81
2022/05/14 23:29:05;;;;;;;19.23;8.90;;;;;13.40;101476.00;;;;9943429;29;20279;-80
2022/05/14 23:34:08;;;;;;;17.03;9.00;;;;;13.30;101479.00;;;;9988766;29;20199;-80
2022/05/14 23:39:10;;;;;;;19.10;8.13;;;;;13.10;101481.00;;;;9994920;29;20217;-80
2022/05/14 23:44:12;;;;;;;19.47;9.20;;;;;13.00;101470.00;;;;9951529;29;20239;-80
2022/05/14 23:49:14;;;;;;;16.57;8.53;;;;;12.90;101475.00;;;;9999408;29;20673;-80
2022/05/14 23:54:16;;;;;;;24.03;9.63;;;;;12.80;101473.00;;;;9965681;29;20210;-80
